QFA820 YSSY-YSCB
Flight info
| Callsign | QFA820 |
|---|---|
| Flight time | 0h 28m |
| Altitude | 29000 |
| Route | ABBEY3 WOL H65 CB DCT |
| Aircraft | A320/M-V/N |
Departure
| Time | 2026-04-24 11:42 |
|---|---|
| Airport | Sydney Kingsford Smith International Airport (YSSY) |
Arrival
| Time | 2026-04-24 12:10 |
|---|---|
| Airport | Canberra Airport (YSCB) |
| Time | Latitude | Longitude | Altitude | Speed | Heading |
|---|---|---|---|---|---|
| 2026-04-24 11:02 | -33.93596 | 151.17698 | 30 ft | 0 kts | 76° |
| 2026-04-24 11:20 | -33.93597 | 151.17697 | 30 ft | 3 kts | 76° |
| 2026-04-24 11:20 | -33.93598 | 151.17689 | 30 ft | 2 kts | 76° |
| 2026-04-24 11:20 | -33.93602 | 151.17673 | 30 ft | 2 kts | 76° |
| 2026-04-24 11:20 | -33.93602 | 151.17671 | 30 ft | 0 kts | 76° |
| 2026-04-24 11:21 | -33.93605 | 151.17658 | 30 ft | 2 kts | 75° |
| 2026-04-24 11:21 | -33.93609 | 151.17643 | 30 ft | 2 kts | 52° |
| 2026-04-24 11:21 | -33.93619 | 151.17631 | 29 ft | 2 kts | 21° |
| 2026-04-24 11:22 | -33.93630 | 151.17627 | 28 ft | 0 kts | 348° |
| 2026-04-24 11:24 | -33.93624 | 151.17625 | 28 ft | 3 kts | 343° |
| 2026-04-24 11:24 | -33.93582 | 151.17611 | 27 ft | 9 kts | 347° |
| 2026-04-24 11:25 | -33.93572 | 151.17608 | 27 ft | 2 kts | 347° |
| 2026-04-24 11:25 | -33.93540 | 151.17599 | 27 ft | 7 kts | 347° |
| 2026-04-24 11:25 | -33.93474 | 151.17583 | 27 ft | 10 kts | 6° |
| 2026-04-24 11:25 | -33.93400 | 151.17593 | 30 ft | 11 kts | 350° |
| 2026-04-24 11:26 | -33.93380 | 151.17524 | 25 ft | 14 kts | 259° |
| 2026-04-24 11:26 | -33.93396 | 151.17423 | 19 ft | 0 kts | 258° |
| 2026-04-24 11:27 | -33.93397 | 151.17418 | 19 ft | 0 kts | 258° |
| 2026-04-24 11:28 | -33.93398 | 151.17412 | 19 ft | 0 kts | 261° |
| 2026-04-24 11:29 | -33.93407 | 151.17414 | 21 ft | 0 kts | 261° |
| 2026-04-24 11:31 | -33.93596 | 151.17698 | 30 ft | 0 kts | 76° |
| 2026-04-24 11:32 | -33.93597 | 151.17697 | 30 ft | 2 kts | 76° |
| 2026-04-24 11:32 | -33.93602 | 151.17669 | 30 ft | 3 kts | 76° |
| 2026-04-24 11:32 | -33.93606 | 151.17651 | 31 ft | 2 kts | 67° |
| 2026-04-24 11:33 | -33.93613 | 151.17637 | 32 ft | 0 kts | 39° |
| 2026-04-24 11:33 | -33.93616 | 151.17633 | 29 ft | 0 kts | 29° |
| 2026-04-24 11:33 | -33.93629 | 151.17627 | 29 ft | 0 kts | 359° |
| 2026-04-24 11:34 | -33.93626 | 151.17626 | 28 ft | 0 kts | 351° |
| 2026-04-24 11:35 | -33.93611 | 151.17622 | 28 ft | 0 kts | 342° |
| 2026-04-24 11:36 | -33.93604 | 151.17619 | 28 ft | 5 kts | 342° |
| 2026-04-24 11:36 | -33.93528 | 151.17596 | 27 ft | 17 kts | 347° |
| 2026-04-24 11:37 | -33.93491 | 151.17586 | 27 ft | 3 kts | 348° |
| 2026-04-24 11:37 | -33.93454 | 151.17583 | 28 ft | 7 kts | 359° |
| 2026-04-24 11:37 | -33.93403 | 151.17582 | 29 ft | 8 kts | 350° |
| 2026-04-24 11:37 | -33.93382 | 151.17514 | 23 ft | 15 kts | 258° |
| 2026-04-24 11:38 | -33.93397 | 151.17411 | 19 ft | 7 kts | 258° |
| 2026-04-24 11:38 | -33.93398 | 151.17409 | 19 ft | 0 kts | 258° |
| 2026-04-24 11:40 | -33.93403 | 151.17381 | 18 ft | 7 kts | 257° |
| 2026-04-24 11:40 | -33.93411 | 151.17334 | 17 ft | 11 kts | 257° |
| 2026-04-24 11:40 | -33.93469 | 151.17302 | 15 ft | 12 kts | 173° |
| 2026-04-24 11:41 | -33.93516 | 151.17313 | 15 ft | 0 kts | 162° |
| 2026-04-24 11:41 | -33.93563 | 151.17330 | 16 ft | 33 kts | 167° |
| 2026-04-24 11:41 | -33.94095 | 151.17461 | 19 ft | 121 kts | 168° |
| 2026-04-24 11:41 | -33.95057 | 151.17710 | 254 ft | 166 kts | 170° |
| 2026-04-24 11:42 | -33.96200 | 151.17818 | 1206 ft | 166 kts | 180° |
| 2026-04-24 11:42 | -33.97356 | 151.17741 | 2157 ft | 173 kts | 182° |
| 2026-04-24 11:42 | -33.98651 | 151.17637 | 2781 ft | 196 kts | 182° |
| 2026-04-24 11:42 | -34.00054 | 151.17559 | 3462 ft | 217 kts | 180° |
| 2026-04-24 11:43 | -34.01570 | 151.17509 | 4148 ft | 237 kts | 179° |
| 2026-04-24 11:43 | -34.03295 | 151.17679 | 4757 ft | 262 kts | 167° |
| 2026-04-24 11:43 | -34.05096 | 151.18248 | 4955 ft | 270 kts | 162° |
| 2026-04-24 11:43 | -34.06913 | 151.18874 | 5139 ft | 273 kts | 162° |
| 2026-04-24 11:44 | -34.08754 | 151.19504 | 5811 ft | 276 kts | 162° |
| 2026-04-24 11:44 | -34.10413 | 151.20065 | 6893 ft | 276 kts | 162° |
| 2026-04-24 11:44 | -34.12279 | 151.20691 | 7959 ft | 279 kts | 162° |
| 2026-04-24 11:44 | -34.14166 | 151.21322 | 9018 ft | 283 kts | 162° |
| 2026-04-24 11:45 | -34.16074 | 151.21960 | 10103 ft | 286 kts | 162° |
| 2026-04-24 11:45 | -34.18068 | 151.22473 | 10790 ft | 307 kts | 175° |
| 2026-04-24 11:45 | -34.20228 | 151.22052 | 11475 ft | 322 kts | 200° |
| 2026-04-24 11:45 | -34.22004 | 151.20692 | 12370 ft | 328 kts | 223° |
| 2026-04-24 11:46 | -34.23589 | 151.18560 | 13365 ft | 333 kts | 228° |
| 2026-04-24 11:46 | -34.25101 | 151.16407 | 14316 ft | 336 kts | 229° |
| 2026-04-24 11:46 | -34.26624 | 151.14235 | 15168 ft | 340 kts | 228° |
| 2026-04-24 11:46 | -34.28161 | 151.12049 | 16000 ft | 344 kts | 228° |
| 2026-04-24 11:47 | -34.29727 | 151.09832 | 16825 ft | 349 kts | 228° |
| 2026-04-24 11:47 | -34.31229 | 151.07712 | 17605 ft | 352 kts | 228° |
| 2026-04-24 11:47 | -34.32844 | 151.05433 | 18442 ft | 356 kts | 228° |
| 2026-04-24 11:47 | -34.34394 | 151.03249 | 19152 ft | 360 kts | 228° |
| 2026-04-24 11:48 | -34.36027 | 151.00948 | 19893 ft | 362 kts | 228° |
| 2026-04-24 11:48 | -34.37742 | 150.98700 | 20601 ft | 364 kts | 221° |
| 2026-04-24 11:48 | -34.39652 | 150.96641 | 21090 ft | 375 kts | 220° |
| 2026-04-24 11:48 | -34.41650 | 150.94491 | 21306 ft | 392 kts | 220° |
| 2026-04-24 11:49 | -34.43698 | 150.92273 | 21898 ft | 397 kts | 220° |
| 2026-04-24 11:49 | -34.45761 | 150.90033 | 22613 ft | 399 kts | 220° |
| 2026-04-24 11:49 | -34.47799 | 150.87819 | 23269 ft | 402 kts | 220° |
| 2026-04-24 11:49 | -34.49898 | 150.85538 | 23931 ft | 406 kts | 220° |
| 2026-04-24 11:50 | -34.51962 | 150.83294 | 24504 ft | 409 kts | 220° |
| 2026-04-24 11:50 | -34.53970 | 150.81110 | 25007 ft | 412 kts | 220° |
| 2026-04-24 11:50 | -34.55820 | 150.78874 | 25477 ft | 417 kts | 226° |
| 2026-04-24 11:50 | -34.57625 | 150.76111 | 25979 ft | 423 kts | 232° |
| 2026-04-24 11:51 | -34.59354 | 150.73208 | 26478 ft | 426 kts | 231° |
| 2026-04-24 11:51 | -34.61112 | 150.70289 | 26978 ft | 429 kts | 231° |
| 2026-04-24 11:51 | -34.62886 | 150.67353 | 27438 ft | 433 kts | 231° |
| 2026-04-24 11:51 | -34.64673 | 150.64391 | 27910 ft | 436 kts | 230° |
| 2026-04-24 11:52 | -34.66472 | 150.61406 | 28361 ft | 440 kts | 230° |
| 2026-04-24 11:52 | -34.68282 | 150.58395 | 28800 ft | 443 kts | 230° |
| 2026-04-24 11:52 | -34.70106 | 150.55358 | 29238 ft | 446 kts | 230° |
| 2026-04-24 11:52 | -34.71943 | 150.52298 | 29472 ft | 449 kts | 230° |
| 2026-04-24 11:53 | -34.75606 | 150.46183 | 29514 ft | 448 kts | 230° |
| 2026-04-24 11:53 | -34.79071 | 150.40388 | 28923 ft | 445 kts | 230° |
| 2026-04-24 11:54 | -34.80901 | 150.37329 | 28019 ft | 448 kts | 231° |
| 2026-04-24 11:54 | -34.82744 | 150.34249 | 26954 ft | 453 kts | 231° |
| 2026-04-24 11:54 | -34.84569 | 150.31193 | 26182 ft | 451 kts | 231° |
| 2026-04-24 11:54 | -34.86406 | 150.28113 | 25513 ft | 446 kts | 232° |
| 2026-04-24 11:55 | -34.88216 | 150.25073 | 24837 ft | 441 kts | 232° |
| 2026-04-24 11:55 | -34.90009 | 150.22064 | 24181 ft | 437 kts | 232° |
| 2026-04-24 11:55 | -34.91788 | 150.19076 | 23428 ft | 433 kts | 232° |
| 2026-04-24 11:55 | -34.93548 | 150.16116 | 22676 ft | 429 kts | 232° |
| 2026-04-24 11:56 | -34.95288 | 150.13185 | 21941 ft | 425 kts | 233° |
| 2026-04-24 11:56 | -34.97009 | 150.10282 | 21230 ft | 421 kts | 233° |
| 2026-04-24 11:56 | -34.98715 | 150.07402 | 20537 ft | 417 kts | 233° |
| 2026-04-24 11:56 | -35.00411 | 150.04536 | 19876 ft | 413 kts | 233° |
| 2026-04-24 11:57 | -35.02085 | 150.01707 | 19218 ft | 410 kts | 233° |
| 2026-04-24 11:57 | -35.03718 | 149.98877 | 18521 ft | 407 kts | 238° |
| 2026-04-24 11:57 | -35.04911 | 149.95763 | 17792 ft | 403 kts | 251° |
| 2026-04-24 11:57 | -35.05475 | 149.92429 | 17074 ft | 400 kts | 265° |
| 2026-04-24 11:58 | -35.05551 | 149.89104 | 16398 ft | 397 kts | 269° |
| 2026-04-24 11:58 | -35.05597 | 149.85889 | 15728 ft | 394 kts | 269° |
| 2026-04-24 11:58 | -35.05647 | 149.82601 | 15070 ft | 391 kts | 269° |
| 2026-04-24 11:58 | -35.05697 | 149.79290 | 14408 ft | 388 kts | 269° |
| 2026-04-24 11:59 | -35.05747 | 149.76017 | 13788 ft | 383 kts | 269° |
| 2026-04-24 11:59 | -35.05796 | 149.72824 | 13579 ft | 368 kts | 269° |
| 2026-04-24 11:59 | -35.05841 | 149.69770 | 13534 ft | 354 kts | 269° |
| 2026-04-24 11:59 | -35.05886 | 149.66735 | 13526 ft | 361 kts | 269° |
| 2026-04-24 12:00 | -35.05929 | 149.63671 | 13374 ft | 360 kts | 269° |
| 2026-04-24 12:00 | -35.05971 | 149.60615 | 12892 ft | 360 kts | 269° |
| 2026-04-24 12:00 | -35.06013 | 149.57524 | 12019 ft | 367 kts | 269° |
| 2026-04-24 12:00 | -35.06055 | 149.54383 | 11248 ft | 370 kts | 269° |
| 2026-04-24 12:01 | -35.06096 | 149.51277 | 10922 ft | 359 kts | 269° |
| 2026-04-24 12:01 | -35.06135 | 149.48396 | 10785 ft | 344 kts | 269° |
| 2026-04-24 12:01 | -35.06172 | 149.45514 | 10641 ft | 329 kts | 269° |
| 2026-04-24 12:01 | -35.06207 | 149.42769 | 10371 ft | 320 kts | 269° |
| 2026-04-24 12:02 | -35.06240 | 149.40147 | 9612 ft | 328 kts | 270° |
| 2026-04-24 12:02 | -35.06274 | 149.37331 | 8857 ft | 335 kts | 270° |
| 2026-04-24 12:02 | -35.06307 | 149.34539 | 8657 ft | 322 kts | 270° |
| 2026-04-24 12:02 | -35.06339 | 149.31909 | 8529 ft | 308 kts | 270° |
| 2026-04-24 12:03 | -35.06369 | 149.29436 | 8379 ft | 278 kts | 270° |
| 2026-04-24 12:03 | -35.06396 | 149.27194 | 8140 ft | 251 kts | 270° |
| 2026-04-24 12:03 | -35.06420 | 149.25162 | 7957 ft | 228 kts | 270° |
| 2026-04-24 12:03 | -35.06449 | 149.23296 | 7443 ft | 217 kts | 266° |
| 2026-04-24 12:04 | -35.06896 | 149.21774 | 7002 ft | 201 kts | 234° |
| 2026-04-24 12:04 | -35.07928 | 149.20766 | 6404 ft | 187 kts | 201° |
| 2026-04-24 12:04 | -35.09183 | 149.20531 | 5727 ft | 182 kts | 180° |
| 2026-04-24 12:04 | -35.10430 | 149.20482 | 5038 ft | 181 kts | 181° |
| 2026-04-24 12:05 | -35.11691 | 149.20419 | 4312 ft | 182 kts | 182° |
| 2026-04-24 12:05 | -35.12923 | 149.20303 | 3984 ft | 164 kts | 184° |
| 2026-04-24 12:05 | -35.13951 | 149.20171 | 3989 ft | 141 kts | 184° |
| 2026-04-24 12:05 | -35.14944 | 149.20060 | 3992 ft | 145 kts | 183° |
| 2026-04-24 12:06 | -35.15939 | 149.19955 | 3988 ft | 144 kts | 183° |
| 2026-04-24 12:06 | -35.16864 | 149.19861 | 4038 ft | 145 kts | 184° |
| 2026-04-24 12:06 | -35.17878 | 149.19756 | 4019 ft | 145 kts | 184° |
| 2026-04-24 12:06 | -35.18855 | 149.19652 | 3868 ft | 141 kts | 184° |
| 2026-04-24 12:07 | -35.19832 | 149.19547 | 3549 ft | 143 kts | 184° |
| 2026-04-24 12:07 | -35.20814 | 149.19444 | 3249 ft | 139 kts | 182° |
| 2026-04-24 12:07 | -35.21766 | 149.19439 | 2968 ft | 135 kts | 178° |
| 2026-04-24 12:07 | -35.22657 | 149.19444 | 2866 ft | 129 kts | 179° |
| 2026-04-24 12:08 | -35.23575 | 149.19449 | 2916 ft | 134 kts | 179° |
| 2026-04-24 12:08 | -35.24537 | 149.19450 | 2778 ft | 136 kts | 179° |
| 2026-04-24 12:08 | -35.25470 | 149.19463 | 2510 ft | 130 kts | 180° |
| 2026-04-24 12:08 | -35.26059 | 149.19457 | 2374 ft | 130 kts | 180° |
| 2026-04-24 12:09 | -35.26938 | 149.19440 | 2249 ft | 130 kts | 178° |
| 2026-04-24 12:09 | -35.27996 | 149.19445 | 2118 ft | 129 kts | 180° |
| 2026-04-24 12:09 | -35.28885 | 149.19445 | 1941 ft | 129 kts | 179° |
| 2026-04-24 12:09 | -35.29476 | 149.19444 | 1880 ft | 126 kts | 180° |
| 2026-04-24 12:10 | -35.30399 | 149.19446 | 1881 ft | 63 kts | 180° |
| 2026-04-24 12:10 | -35.30699 | 149.19430 | 1877 ft | 39 kts | 181° |
| 2026-04-24 12:10 | -35.30959 | 149.19450 | 1880 ft | 37 kts | 184° |
| 2026-04-24 12:11 | -35.31355 | 149.19439 | 1874 ft | 34 kts | 180° |
| 2026-04-24 12:11 | -35.31468 | 149.19388 | 1873 ft | 14 kts | 266° |
| 2026-04-24 12:11 | -35.31463 | 149.19327 | 1869 ft | 0 kts | 289° |
| 2026-04-24 12:12 | -35.31462 | 149.19322 | 1870 ft | 1 kts | 289° |
| 2026-04-24 12:12 | -35.31459 | 149.19314 | 1871 ft | 2 kts | 291° |
| 2026-04-24 12:12 | -35.31430 | 149.19265 | 1872 ft | 11 kts | 318° |
| 2026-04-24 12:13 | -35.31337 | 149.19235 | 1873 ft | 17 kts | 358° |
| 2026-04-24 12:13 | -35.31209 | 149.19237 | 1875 ft | 19 kts | 357° |
| 2026-04-24 12:13 | -35.31090 | 149.19243 | 1878 ft | 15 kts | 2° |
| 2026-04-24 12:13 | -35.30991 | 149.19243 | 1878 ft | 13 kts | 359° |
| 2026-04-24 12:14 | -35.30912 | 149.19240 | 1881 ft | 10 kts | 358° |
| 2026-04-24 12:14 | -35.30855 | 149.19238 | 1883 ft | 7 kts | 359° |
| 2026-04-24 12:14 | -35.30814 | 149.19236 | 1883 ft | 5 kts | 358° |
| 2026-04-24 12:14 | -35.30781 | 149.19235 | 1877 ft | 6 kts | 358° |
| 2026-04-24 12:15 | -35.30741 | 149.19207 | 1883 ft | 9 kts | 296° |
| 2026-04-24 12:15 | -35.30736 | 149.19169 | 1882 ft | 0 kts | 276° |